createdAt,value
2023-04-17T00:01:16.689Z,97966.22
2023-04-17T00:06:19.056Z,97965.31
2023-04-17T00:11:21.606Z,97962.09
2023-04-17T00:16:23.001Z,97964.34
2023-04-17T00:21:24.346Z,97961.28
2023-04-17T00:26:25.819Z,97961.97
2023-04-17T00:31:27.073Z,97966.69
2023-04-17T00:36:28.307Z,97965.44
2023-04-17T00:41:29.617Z,97969.34
2023-04-17T00:46:31.416Z,97969.03
2023-04-17T00:51:32.650Z,97970.88
2023-04-17T00:56:33.888Z,97974.16
2023-04-17T01:01:35.673Z,97975.63
2023-04-17T01:06:37.002Z,97973.47
2023-04-17T01:11:39.246Z,97971.84
2023-04-17T01:16:40.578Z,97966.53
2023-04-17T01:21:42.153Z,97962.19
2023-04-17T01:26:43.670Z,97966.59
2023-04-17T01:31:44.895Z,97958.81
2023-04-17T01:36:46.333Z,97963.50
2023-04-17T01:41:47.672Z,97959.81
2023-04-17T01:46:48.948Z,97953.75
2023-04-17T01:51:50.180Z,97961.47
2023-04-17T01:56:51.455Z,97963.09
2023-04-17T02:01:52.762Z,97962.53
2023-04-17T02:06:54.128Z,97967.19
2023-04-17T02:11:56.906Z,97965.69
2023-04-17T02:16:58.282Z,97969.88
2023-04-17T02:21:59.545Z,97970.69
2023-04-17T02:27:00.840Z,97982.34
2023-04-17T02:32:02.257Z,97975.44
2023-04-17T02:37:03.544Z,97966.53
2023-04-17T02:42:04.820Z,97970.69
2023-04-17T02:47:06.074Z,97969.78
2023-04-17T02:52:07.460Z,97969.78
2023-04-17T02:57:08.685Z,97968.56
2023-04-17T03:02:10.086Z,97970.31
2023-04-17T03:07:11.755Z,97967.72
2023-04-17T03:12:13.030Z,97972.16
2023-04-17T03:17:14.238Z,97976.06
2023-04-17T03:22:15.593Z,97966.56
2023-04-17T03:27:16.926Z,97971.47
2023-04-17T03:32:18.364Z,97963.88
2023-04-17T03:37:19.822Z,97979.31
2023-04-17T03:42:21.166Z,97982.97
2023-04-17T03:47:22.465Z,97982.06
2023-04-17T03:52:23.741Z,97985.03
2023-04-17T03:57:25.021Z,97992.00
2023-04-17T04:02:26.405Z,97994.63
2023-04-17T04:07:27.826Z,97993.94
2023-04-17T04:12:29.111Z,98004.13
2023-04-17T04:17:30.405Z,98004.56
2023-04-17T04:22:31.741Z,98008.34
2023-04-17T04:27:33.087Z,98015.34
2023-04-17T04:32:34.387Z,98024.72
2023-04-17T04:37:36.026Z,98032.44
2023-04-17T04:42:37.839Z,98033.56
2023-04-17T04:47:39.118Z,98038.53
2023-04-17T04:52:40.430Z,98036.63
2023-04-17T04:57:41.995Z,98039.78
2023-04-17T05:02:43.435Z,98045.91
2023-04-17T05:07:44.816Z,98040.91
2023-04-17T05:12:46.138Z,98053.44
2023-04-17T05:17:47.915Z,98054.75
2023-04-17T05:22:49.797Z,98060.84
2023-04-17T05:27:51.098Z,98060.88
2023-04-17T05:32:53.975Z,98058.75
2023-04-17T05:37:56.103Z,98063.75
2023-04-17T05:42:57.341Z,98072.78
2023-04-17T05:47:58.606Z,98065.34
2023-04-17T05:52:59.932Z,98065.00
2023-04-17T05:58:10.545Z,98067.66
2023-04-17T06:03:23.961Z,98064.75
2023-04-17T06:08:26.135Z,98069.41
2023-04-17T06:13:27.463Z,98071.88
2023-04-17T06:18:28.759Z,98075.59
2023-04-17T06:23:29.974Z,98078.31
2023-04-17T06:28:32.260Z,98080.44
2023-04-17T06:33:33.559Z,98098.06
2023-04-17T06:38:34.857Z,98102.28
2023-04-17T06:43:36.244Z,98113.81
2023-04-17T06:48:37.483Z,98116.38
2023-04-17T06:53:38.883Z,98113.22
2023-04-17T06:58:48.900Z,98107.56
2023-04-17T07:03:50.370Z,98107.16
2023-04-17T07:08:53.501Z,98111.03
2023-04-17T07:13:56.274Z,98115.25
2023-04-17T07:18:57.552Z,98111.38
2023-04-17T07:23:58.835Z,98119.03
2023-04-17T07:29:00.333Z,98120.97
2023-04-17T07:34:01.616Z,98115.50
2023-04-17T07:39:03.269Z,98110.63
2023-04-17T07:44:05.796Z,98105.47
2023-04-17T07:49:07.041Z,98092.66
2023-04-17T07:54:08.318Z,98089.28
2023-04-17T07:59:09.830Z,98091.22
2023-04-17T08:04:11.571Z,98100.31
2023-04-17T08:09:13.256Z,98094.91
2023-04-17T08:14:16.309Z,98095.94
2023-04-17T08:19:17.637Z,98089.88
2023-04-17T08:24:20.034Z,98081.28
2023-04-17T08:29:22.691Z,98079.88
2023-04-17T08:34:23.932Z,98070.22
2023-04-17T08:39:25.196Z,98067.28
2023-04-17T08:44:26.645Z,98051.88
2023-04-17T08:49:28.369Z,98040.84
2023-04-17T08:54:29.682Z,98039.69
2023-04-17T08:59:31.053Z,98042.28
2023-04-17T09:04:32.447Z,98028.19
2023-04-17T09:09:33.899Z,98023.22
2023-04-17T09:14:35.209Z,98014.69
2023-04-17T09:19:36.617Z,97991.88
2023-04-17T09:24:37.989Z,97982.75
2023-04-17T09:29:39.316Z,97975.81
2023-04-17T09:34:40.565Z,97969.34
2023-04-17T09:39:43.005Z,97966.84
2023-04-17T09:44:45.012Z,97958.81
2023-04-17T09:49:49.544Z,97956.72
2023-04-17T09:54:54.174Z,97946.72
2023-04-17T09:59:59.560Z,97956.88
2023-04-17T10:05:00.854Z,97968.22
2023-04-17T10:10:03.255Z,97970.78
2023-04-17T10:15:04.879Z,97982.03
2023-04-17T10:20:06.125Z,97983.44
2023-04-17T10:25:07.431Z,97991.94
2023-04-17T10:30:12.930Z,98010.28
2023-04-17T10:35:14.260Z,98015.47
2023-04-17T10:40:20.841Z,98021.53
2023-04-17T10:45:24.798Z,98036.28
2023-04-17T10:50:26.048Z,98034.16
2023-04-17T10:55:27.415Z,98039.59
2023-04-17T11:00:32.224Z,98039.09
2023-04-17T11:05:34.523Z,98039.53
2023-04-17T11:10:36.378Z,98042.59
2023-04-17T11:15:39.721Z,98019.47
2023-04-17T11:20:40.974Z,98010.47
2023-04-17T11:25:43.043Z,98006.63
2023-04-17T11:30:45.331Z,97996.44
2023-04-17T11:35:47.197Z,97981.44
2023-04-17T11:40:48.664Z,97977.75
2023-04-17T11:45:49.982Z,97967.25
2023-04-17T11:50:51.358Z,97985.28
2023-04-17T11:55:52.630Z,97989.44
2023-04-17T12:00:56.102Z,97992.09
2023-04-17T12:05:57.543Z,98007.66
2023-04-17T12:10:58.843Z,98020.38
2023-04-17T12:16:00.260Z,98029.03
2023-04-17T12:21:01.657Z,98041.34
2023-04-17T12:26:03.133Z,98047.22
2023-04-17T12:31:04.737Z,98023.41
2023-04-17T12:36:06.784Z,98011.69
2023-04-17T12:41:08.124Z,98014.16
2023-04-17T12:46:09.452Z,97990.03
2023-04-17T12:51:10.877Z,97978.16
2023-04-17T12:56:12.167Z,97956.69
2023-04-17T13:01:13.676Z,97944.38
2023-04-17T13:06:16.861Z,97927.75
2023-04-17T13:11:18.237Z,97922.00
2023-04-17T13:16:19.581Z,97897.78
2023-04-17T13:21:20.872Z,97888.94
2023-04-17T13:26:22.157Z,97881.03
2023-04-17T13:31:25.735Z,97881.06
2023-04-17T13:36:27.732Z,97879.16
2023-04-17T13:41:29.506Z,97879.16
2023-04-17T13:46:31.929Z,97874.31
2023-04-17T13:51:33.214Z,97869.66
2023-04-17T13:56:34.457Z,97870.41
2023-04-17T14:01:35.945Z,97874.91
2023-04-17T14:06:37.202Z,97870.91
2023-04-17T14:11:38.473Z,97867.69
2023-04-17T14:16:39.775Z,97880.84
2023-04-17T14:21:40.996Z,97880.75
2023-04-17T14:26:42.574Z,97877.41
2023-04-17T14:31:43.873Z,97876.63
2023-04-17T14:36:45.306Z,97885.84
2023-04-17T14:41:46.617Z,97881.75
2023-04-17T14:46:48.671Z,97866.75
2023-04-17T14:51:49.953Z,97863.34
2023-04-17T14:56:51.265Z,97862.03
2023-04-17T15:01:52.702Z,97856.06
2023-04-17T15:06:54.130Z,97846.94
2023-04-17T15:11:56.797Z,97856.91
2023-04-17T15:16:59.003Z,97849.03
2023-04-17T15:22:00.495Z,97848.38
2023-04-17T15:27:01.869Z,97856.28
2023-04-17T15:32:03.299Z,97838.72
2023-04-17T15:37:04.563Z,97839.91
2023-04-17T15:42:09.853Z,97838.75
2023-04-17T15:47:11.212Z,97829.47
2023-04-17T15:52:12.490Z,97822.28
2023-04-17T15:57:13.720Z,97809.06
2023-04-17T16:02:15.261Z,97801.06
2023-04-17T16:07:16.731Z,97802.81
2023-04-17T16:12:18.076Z,97816.50
2023-04-17T16:17:19.432Z,97817.28
2023-04-17T16:22:20.805Z,97830.97
2023-04-17T16:27:22.277Z,97834.06
2023-04-17T16:32:24.530Z,97830.94
2023-04-17T16:37:25.810Z,97833.81
2023-04-17T16:42:27.074Z,97837.25
2023-04-17T16:47:29.481Z,97839.97
2023-04-17T16:52:30.864Z,97842.22
2023-04-17T16:57:32.146Z,97845.00
2023-04-17T17:02:33.456Z,97852.59
2023-04-17T17:07:34.811Z,97866.88
2023-04-17T17:12:36.125Z,97891.69
2023-04-17T17:17:37.868Z,97897.47
2023-04-17T17:22:39.198Z,97921.69
2023-04-17T17:27:40.446Z,97922.19
2023-04-17T17:32:41.811Z,97947.06
2023-04-17T17:37:43.259Z,97958.72
2023-04-17T17:42:45.287Z,97975.41
2023-04-17T17:47:46.699Z,97988.16
2023-04-17T17:52:48.381Z,97990.88
2023-04-17T17:57:49.920Z,98005.16
2023-04-17T18:02:51.287Z,98015.38
2023-04-17T18:07:52.663Z,98021.09
2023-04-17T18:12:54.164Z,98030.50
2023-04-17T18:17:55.730Z,98051.94
2023-04-17T18:22:57.708Z,98061.06
2023-04-17T18:27:59.103Z,98078.44
2023-04-17T18:33:00.922Z,98087.59
2023-04-17T18:38:04.396Z,98090.72
2023-04-17T18:43:06.085Z,98104.06
2023-04-17T18:48:07.501Z,98113.69
2023-04-17T18:53:08.773Z,98127.41
2023-04-17T18:58:10.041Z,98118.41
2023-04-17T19:03:11.378Z,98128.94
2023-04-17T19:08:13.896Z,98130.84
2023-04-17T19:13:15.109Z,98140.81
2023-04-17T19:18:16.374Z,98139.16
2023-04-17T19:23:17.571Z,98147.81
2023-04-17T19:28:18.853Z,98146.72
2023-04-17T19:33:20.238Z,98148.59
2023-04-17T19:38:21.558Z,98142.25
2023-04-17T19:43:22.863Z,98139.97
2023-04-17T19:48:24.166Z,98139.25
2023-04-17T19:53:25.624Z,98143.59
2023-04-17T19:58:26.823Z,98136.84
2023-04-17T20:03:28.324Z,98138.50
2023-04-17T20:08:29.732Z,98125.44
2023-04-17T20:13:31.055Z,98125.91
2023-04-17T20:18:33.732Z,98130.13
2023-04-17T20:23:34.985Z,98125.06
2023-04-17T20:28:36.256Z,98125.53
2023-04-17T20:33:37.553Z,98126.72
2023-04-17T20:38:38.808Z,98136.06
2023-04-17T20:43:40.193Z,98137.75
2023-04-17T20:48:41.491Z,98136.00
2023-04-17T20:53:42.774Z,98136.00
2023-04-17T20:58:43.985Z,98143.34
2023-04-17T21:03:45.365Z,98142.16
2023-04-17T21:08:46.737Z,98140.47
2023-04-17T21:13:48.185Z,98148.28
2023-04-17T21:18:51.268Z,98142.16
2023-04-17T21:23:52.546Z,98142.03
2023-04-17T21:28:53.832Z,98150.97
2023-04-17T21:33:55.169Z,98151.84
2023-04-17T21:38:56.548Z,98155.16
2023-04-17T21:44:01.523Z,98141.16
2023-04-17T21:49:02.856Z,98142.69
2023-04-17T21:54:04.277Z,98132.97
2023-04-17T21:59:05.824Z,98134.50
2023-04-17T22:04:07.057Z,98140.38
2023-04-17T22:09:08.808Z,98137.25
2023-04-17T22:14:10.088Z,98132.16
2023-04-17T22:19:11.318Z,98128.38
2023-04-17T22:24:12.694Z,98121.66
2023-04-17T22:29:14.125Z,98128.66
2023-04-17T22:34:15.740Z,98124.75
2023-04-17T22:39:17.284Z,98118.94
2023-04-17T22:44:18.570Z,98116.31
2023-04-17T22:49:20.104Z,98119.88
2023-04-17T22:54:23.169Z,98113.06
2023-04-17T22:59:24.628Z,98116.81
2023-04-17T23:04:25.908Z,98125.03
2023-04-17T23:09:27.143Z,98115.34
2023-04-17T23:14:28.479Z,98114.41
2023-04-17T23:19:29.833Z,98116.69
2023-04-17T23:24:31.161Z,98111.00
2023-04-17T23:29:32.522Z,98109.81
2023-04-17T23:34:33.882Z,98110.59
2023-04-17T23:39:35.184Z,98111.44
2023-04-17T23:44:36.555Z,98105.06
2023-04-17T23:49:37.808Z,98095.34
2023-04-17T23:54:39.239Z,98099.63
2023-04-17T23:59:40.643Z,98097.72
